sensor_id;sensor_type;location;lat;lon;timestamp;pressure;altitude;pressure_sealevel;temperature;humidity
12146;BME280;6136;47.032;15.398;2022-12-24T00:01:32;96861.44;;;3.89;100.00
12146;BME280;6136;47.032;15.398;2022-12-24T00:04:01;96858.03;;;3.87;100.00
12146;BME280;6136;47.032;15.398;2022-12-24T00:06:30;96862.72;;;3.80;100.00
12146;BME280;6136;47.032;15.398;2022-12-24T00:08:58;96851.09;;;3.86;100.00
12146;BME280;6136;47.032;15.398;2022-12-24T00:11:27;96840.34;;;3.92;100.00
12146;BME280;6136;47.032;15.398;2022-12-24T00:13:55;96848.25;;;3.90;100.00
12146;BME280;6136;47.032;15.398;2022-12-24T00:16:23;96848.41;;;3.87;100.00
12146;BME280;6136;47.032;15.398;2022-12-24T00:18:52;96852.22;;;3.80;100.00
12146;BME280;6136;47.032;15.398;2022-12-24T00:21:21;96856.00;;;3.75;100.00
12146;BME280;6136;47.032;15.398;2022-12-24T00:23:50;96867.53;;;3.71;100.00
12146;BME280;6136;47.032;15.398;2022-12-24T00:26:18;96863.25;;;3.49;100.00
12146;BME280;6136;47.032;15.398;2022-12-24T00:28:46;96871.28;;;3.46;100.00
12146;BME280;6136;47.032;15.398;2022-12-24T00:31:16;96871.13;;;3.49;100.00
12146;BME280;6136;47.032;15.398;2022-12-24T00:33:45;96870.38;;;3.47;100.00
12146;BME280;6136;47.032;15.398;2022-12-24T00:36:14;96868.78;;;3.43;100.00
12146;BME280;6136;47.032;15.398;2022-12-24T00:38:44;96856.75;;;3.39;100.00
12146;BME280;6136;47.032;15.398;2022-12-24T00:41:14;96859.22;;;3.42;100.00
12146;BME280;6136;47.032;15.398;2022-12-24T00:43:53;96854.22;;;3.57;100.00
12146;BME280;6136;47.032;15.398;2022-12-24T00:46:22;96868.38;;;3.53;100.00
12146;BME280;6136;47.032;15.398;2022-12-24T00:48:51;96870.94;;;3.54;100.00
12146;BME280;6136;47.032;15.398;2022-12-24T00:51:20;96891.44;;;3.44;100.00
12146;BME280;6136;47.032;15.398;2022-12-24T00:53:50;96899.81;;;3.53;100.00
12146;BME280;6136;47.032;15.398;2022-12-24T00:56:19;96903.75;;;3.42;100.00
12146;BME280;6136;47.032;15.398;2022-12-24T00:58:48;96919.88;;;3.33;100.00
12146;BME280;6136;47.032;15.398;2022-12-24T01:01:17;96926.16;;;3.29;100.00
12146;BME280;6136;47.032;15.398;2022-12-24T01:03:45;96923.66;;;3.26;100.00
12146;BME280;6136;47.032;15.398;2022-12-24T01:06:16;96918.69;;;3.20;100.00
12146;BME280;6136;47.032;15.398;2022-12-24T01:08:44;96921.53;;;3.16;100.00
12146;BME280;6136;47.032;15.398;2022-12-24T01:11:14;96916.69;;;3.06;100.00
12146;BME280;6136;47.032;15.398;2022-12-24T01:13:42;96913.88;;;3.11;100.00
12146;BME280;6136;47.032;15.398;2022-12-24T01:16:13;96916.69;;;3.06;100.00
12146;BME280;6136;47.032;15.398;2022-12-24T01:18:42;96923.16;;;2.98;100.00
12146;BME280;6136;47.032;15.398;2022-12-24T01:21:12;96925.84;;;2.96;100.00
12146;BME280;6136;47.032;15.398;2022-12-24T01:23:40;96922.31;;;2.97;100.00
12146;BME280;6136;47.032;15.398;2022-12-24T01:26:09;96922.44;;;2.94;100.00
12146;BME280;6136;47.032;15.398;2022-12-24T01:28:40;96930.34;;;2.93;100.00
12146;BME280;6136;47.032;15.398;2022-12-24T01:31:12;96937.41;;;2.91;100.00
12146;BME280;6136;47.032;15.398;2022-12-24T01:33:41;96939.13;;;2.92;100.00
12146;BME280;6136;47.032;15.398;2022-12-24T01:36:10;96939.00;;;2.95;100.00
12146;BME280;6136;47.032;15.398;2022-12-24T01:38:39;96929.44;;;2.94;100.00
12146;BME280;6136;47.032;15.398;2022-12-24T01:41:13;96914.53;;;2.96;100.00
12146;BME280;6136;47.032;15.398;2022-12-24T01:44:22;96914.53;;;2.96;100.00
12146;BME280;6136;47.032;15.398;2022-12-24T01:47:06;96930.09;;;2.99;100.00
12146;BME280;6136;47.032;15.398;2022-12-24T01:49:37;96925.00;;;3.16;100.00
12146;BME280;6136;47.032;15.398;2022-12-24T01:52:08;96912.22;;;3.29;100.00
12146;BME280;6136;47.032;15.398;2022-12-24T01:54:40;96923.81;;;3.23;100.00
12146;BME280;6136;47.032;15.398;2022-12-24T01:57:15;96924.09;;;3.17;100.00
12146;BME280;6136;47.032;15.398;2022-12-24T01:59:50;96941.63;;;3.15;100.00
12146;BME280;6136;47.032;15.398;2022-12-24T02:02:19;96958.22;;;3.14;100.00
12146;BME280;6136;47.032;15.398;2022-12-24T02:04:52;96963.53;;;3.12;100.00
12146;BME280;6136;47.032;15.398;2022-12-24T02:07:22;96961.00;;;3.11;100.00
12146;BME280;6136;47.032;15.398;2022-12-24T02:09:53;96962.56;;;3.15;100.00
12146;BME280;6136;47.032;15.398;2022-12-24T02:12:24;96955.28;;;3.22;100.00
12146;BME280;6136;47.032;15.398;2022-12-24T02:14:54;96959.56;;;3.24;100.00
12146;BME280;6136;47.032;15.398;2022-12-24T02:17:28;96960.06;;;3.32;100.00
12146;BME280;6136;47.032;15.398;2022-12-24T02:20:29;96955.22;;;3.43;100.00
12146;BME280;6136;47.032;15.398;2022-12-24T02:23:25;96945.84;;;3.38;100.00
12146;BME280;6136;47.032;15.398;2022-12-24T02:26:06;96959.22;;;3.32;100.00
12146;BME280;6136;47.032;15.398;2022-12-24T02:28:53;96958.63;;;3.25;100.00
12146;BME280;6136;47.032;15.398;2022-12-24T02:31:36;96962.88;;;3.28;100.00
12146;BME280;6136;47.032;15.398;2022-12-24T02:34:09;96952.66;;;3.42;100.00
12146;BME280;6136;47.032;15.398;2022-12-24T02:36:43;96960.25;;;3.48;100.00
12146;BME280;6136;47.032;15.398;2022-12-24T02:39:17;96979.28;;;3.51;100.00
12146;BME280;6136;47.032;15.398;2022-12-24T02:41:49;96982.97;;;3.47;100.00
12146;BME280;6136;47.032;15.398;2022-12-24T02:44:38;96991.47;;;3.53;100.00
12146;BME280;6136;47.032;15.398;2022-12-24T02:47:10;96989.50;;;3.58;100.00
12146;BME280;6136;47.032;15.398;2022-12-24T02:49:42;96981.66;;;3.58;100.00
12146;BME280;6136;47.032;15.398;2022-12-24T02:52:27;96987.88;;;3.55;100.00
12146;BME280;6136;47.032;15.398;2022-12-24T02:54:56;96988.81;;;3.54;100.00
12146;BME280;6136;47.032;15.398;2022-12-24T02:57:34;96981.22;;;3.48;100.00
12146;BME280;6136;47.032;15.398;2022-12-24T03:00:08;96977.81;;;3.46;100.00
12146;BME280;6136;47.032;15.398;2022-12-24T03:02:51;96986.56;;;3.45;100.00
12146;BME280;6136;47.032;15.398;2022-12-24T03:05:27;96988.34;;;3.24;100.00
12146;BME280;6136;47.032;15.398;2022-12-24T03:08:02;96987.03;;;3.14;100.00
12146;BME280;6136;47.032;15.398;2022-12-24T03:10:38;96994.34;;;3.06;100.00
12146;BME280;6136;47.032;15.398;2022-12-24T03:13:13;96997.88;;;3.05;100.00
12146;BME280;6136;47.032;15.398;2022-12-24T03:15:43;96993.03;;;2.96;100.00
12146;BME280;6136;47.032;15.398;2022-12-24T03:18:16;97000.03;;;2.95;100.00
12146;BME280;6136;47.032;15.398;2022-12-24T03:20:49;96996.06;;;3.07;100.00
12146;BME280;6136;47.032;15.398;2022-12-24T03:23:19;97000.44;;;3.06;100.00
12146;BME280;6136;47.032;15.398;2022-12-24T03:25:48;97009.72;;;2.93;100.00
12146;BME280;6136;47.032;15.398;2022-12-24T03:28:17;97016.28;;;2.82;100.00
12146;BME280;6136;47.032;15.398;2022-12-24T03:30:47;97011.19;;;2.79;100.00
12146;BME280;6136;47.032;15.398;2022-12-24T03:33:17;97008.13;;;2.67;100.00
12146;BME280;6136;47.032;15.398;2022-12-24T03:35:46;97013.56;;;2.63;100.00
12146;BME280;6136;47.032;15.398;2022-12-24T03:38:14;96997.66;;;2.67;100.00
12146;BME280;6136;47.032;15.398;2022-12-24T03:40:43;96999.31;;;2.48;100.00
12146;BME280;6136;47.032;15.398;2022-12-24T03:43:11;97021.41;;;2.41;100.00
12146;BME280;6136;47.032;15.398;2022-12-24T03:45:41;97026.72;;;2.38;100.00
12146;BME280;6136;47.032;15.398;2022-12-24T03:48:09;97035.56;;;2.36;100.00
12146;BME280;6136;47.032;15.398;2022-12-24T03:50:39;97009.81;;;2.25;100.00
12146;BME280;6136;47.032;15.398;2022-12-24T03:53:08;97041.13;;;2.26;100.00
12146;BME280;6136;47.032;15.398;2022-12-24T03:55:37;97042.78;;;2.29;100.00
12146;BME280;6136;47.032;15.398;2022-12-24T03:58:05;97043.97;;;2.20;100.00
12146;BME280;6136;47.032;15.398;2022-12-24T04:00:34;97057.19;;;2.16;100.00
12146;BME280;6136;47.032;15.398;2022-12-24T04:03:02;97055.16;;;2.24;100.00
12146;BME280;6136;47.032;15.398;2022-12-24T04:05:30;97071.19;;;2.15;100.00
12146;BME280;6136;47.032;15.398;2022-12-24T04:08:00;97091.81;;;2.22;100.00
12146;BME280;6136;47.032;15.398;2022-12-24T04:10:28;97071.19;;;2.15;100.00
12146;BME280;6136;47.032;15.398;2022-12-24T04:12:57;97089.41;;;2.16;100.00
12146;BME280;6136;47.032;15.398;2022-12-24T04:15:25;97077.91;;;1.99;100.00
12146;BME280;6136;47.032;15.398;2022-12-24T04:17:53;97098.00;;;1.97;100.00
12146;BME280;6136;47.032;15.398;2022-12-24T04:20:22;97083.03;;;2.00;100.00
12146;BME280;6136;47.032;15.398;2022-12-24T04:22:51;97095.47;;;1.93;100.00
12146;BME280;6136;47.032;15.398;2022-12-24T04:25:21;97099.16;;;1.88;100.00
12146;BME280;6136;47.032;15.398;2022-12-24T04:27:49;97091.59;;;1.80;100.00
12146;BME280;6136;47.032;15.398;2022-12-24T04:30:18;97099.56;;;1.77;100.00
12146;BME280;6136;47.032;15.398;2022-12-24T04:32:46;97104.06;;;1.72;100.00
12146;BME280;6136;47.032;15.398;2022-12-24T04:35:15;97103.44;;;1.66;100.00
12146;BME280;6136;47.032;15.398;2022-12-24T04:37:43;97090.53;;;1.61;100.00
12146;BME280;6136;47.032;15.398;2022-12-24T04:40:11;97080.50;;;1.49;100.00
12146;BME280;6136;47.032;15.398;2022-12-24T04:42:41;97077.97;;;1.47;100.00
12146;BME280;6136;47.032;15.398;2022-12-24T04:45:10;97075.50;;;1.43;100.00
12146;BME280;6136;47.032;15.398;2022-12-24T04:47:38;97071.25;;;1.40;100.00
12146;BME280;6136;47.032;15.398;2022-12-24T04:50:08;97079.00;;;1.42;100.00
12146;BME280;6136;47.032;15.398;2022-12-24T04:52:37;97084.66;;;1.30;100.00
12146;BME280;6136;47.032;15.398;2022-12-24T04:55:06;97082.44;;;1.17;100.00
12146;BME280;6136;47.032;15.398;2022-12-24T04:57:34;97088.56;;;1.16;100.00
12146;BME280;6136;47.032;15.398;2022-12-24T05:00:07;97081.63;;;1.15;100.00
12146;BME280;6136;47.032;15.398;2022-12-24T05:02:35;97093.53;;;1.24;100.00
12146;BME280;6136;47.032;15.398;2022-12-24T05:05:04;97090.88;;;1.26;100.00
12146;BME280;6136;47.032;15.398;2022-12-24T05:07:33;97115.16;;;1.28;100.00
12146;BME280;6136;47.032;15.398;2022-12-24T05:10:01;97131.00;;;1.22;100.00
12146;BME280;6136;47.032;15.398;2022-12-24T05:12:30;97127.50;;;1.23;100.00
12146;BME280;6136;47.032;15.398;2022-12-24T05:14:58;97133.78;;;1.17;100.00
12146;BME280;6136;47.032;15.398;2022-12-24T05:17:28;97128.91;;;1.06;100.00
12146;BME280;6136;47.032;15.398;2022-12-24T05:19:56;97124.69;;;1.02;100.00
12146;BME280;6136;47.032;15.398;2022-12-24T05:22:25;97119.66;;;0.96;100.00
12146;BME280;6136;47.032;15.398;2022-12-24T05:25:11;97134.31;;;1.00;100.00
12146;BME280;6136;47.032;15.398;2022-12-24T05:27:56;97138.09;;;0.90;100.00
12146;BME280;6136;47.032;15.398;2022-12-24T05:30:25;97136.34;;;0.91;100.00
12146;BME280;6136;47.032;15.398;2022-12-24T05:32:55;97133.84;;;0.88;100.00
12146;BME280;6136;47.032;15.398;2022-12-24T05:35:23;97138.41;;;0.81;100.00
12146;BME280;6136;47.032;15.398;2022-12-24T05:37:52;97141.91;;;0.80;100.00
12146;BME280;6136;47.032;15.398;2022-12-24T05:40:24;97135.84;;;0.80;100.00
12146;BME280;6136;47.032;15.398;2022-12-24T05:42:52;97146.50;;;0.72;100.00
12146;BME280;6136;47.032;15.398;2022-12-24T05:45:20;97149.00;;;0.75;100.00
12146;BME280;6136;47.032;15.398;2022-12-24T05:47:49;97156.06;;;0.71;100.00
12146;BME280;6136;47.032;15.398;2022-12-24T05:50:18;97147.47;;;0.68;100.00
12146;BME280;6136;47.032;15.398;2022-12-24T05:52:47;97131.75;;;0.71;100.00
12146;BME280;6136;47.032;15.398;2022-12-24T05:55:15;97126.81;;;0.62;100.00
12146;BME280;6136;47.032;15.398;2022-12-24T05:57:43;97117.91;;;0.69;100.00
12146;BME280;6136;47.032;15.398;2022-12-24T06:00:12;97134.59;;;0.63;100.00
12146;BME280;6136;47.032;15.398;2022-12-24T06:02:41;97143.34;;;0.61;100.00
12146;BME280;6136;47.032;15.398;2022-12-24T06:05:09;97141.38;;;0.69;100.00
12146;BME280;6136;47.032;15.398;2022-12-24T06:07:39;97155.19;;;0.72;100.00
12146;BME280;6136;47.032;15.398;2022-12-24T06:10:08;97171.06;;;0.65;100.00
12146;BME280;6136;47.032;15.398;2022-12-24T06:12:36;97165.09;;;0.60;100.00
12146;BME280;6136;47.032;15.398;2022-12-24T06:15:06;97169.56;;;0.56;100.00
12146;BME280;6136;47.032;15.398;2022-12-24T06:17:34;97165.28;;;0.54;100.00
12146;BME280;6136;47.032;15.398;2022-12-24T06:20:03;97167.53;;;0.66;100.00
12146;BME280;6136;47.032;15.398;2022-12-24T06:22:31;97173.72;;;0.62;100.00
12146;BME280;6136;47.032;15.398;2022-12-24T06:25:01;97175.63;;;0.57;100.00
12146;BME280;6136;47.032;15.398;2022-12-24T06:27:29;97166.25;;;0.51;100.00
12146;BME280;6136;47.032;15.398;2022-12-24T06:29:58;97182.63;;;0.55;100.00
12146;BME280;6136;47.032;15.398;2022-12-24T06:32:26;97182.78;;;0.50;100.00
12146;BME280;6136;47.032;15.398;2022-12-24T06:34:54;97177.88;;;0.38;100.00
12146;BME280;6136;47.032;15.398;2022-12-24T06:37:23;97181.34;;;0.38;100.00
12146;BME280;6136;47.032;15.398;2022-12-24T06:39:51;97183.88;;;0.42;100.00
12146;BME280;6136;47.032;15.398;2022-12-24T06:42:20;97185.66;;;0.39;100.00
12146;BME280;6136;47.032;15.398;2022-12-24T06:44:50;97188.19;;;0.43;100.00
12146;BME280;6136;47.032;15.398;2022-12-24T06:47:19;97191.78;;;0.38;100.00
12146;BME280;6136;47.032;15.398;2022-12-24T06:49:47;97196.09;;;0.39;100.00
12146;BME280;6136;47.032;15.398;2022-12-24T06:52:16;97202.31;;;0.35;100.00
12146;BME280;6136;47.032;15.398;2022-12-24T06:54:44;97211.06;;;0.33;100.00
12146;BME280;6136;47.032;15.398;2022-12-24T06:57:12;97199.81;;;0.31;100.00
12146;BME280;6136;47.032;15.398;2022-12-24T06:59:42;97198.88;;;0.33;100.00
12146;BME280;6136;47.032;15.398;2022-12-24T07:02:10;97192.78;;;0.34;100.00
12146;BME280;6136;47.032;15.398;2022-12-24T07:04:39;97197.75;;;0.44;100.00
12146;BME280;6136;47.032;15.398;2022-12-24T07:07:07;97201.19;;;0.44;100.00
12146;BME280;6136;47.032;15.398;2022-12-24T07:09:35;97202.59;;;0.56;100.00
12146;BME280;6136;47.032;15.398;2022-12-24T07:12:04;97199.91;;;0.59;100.00
12146;BME280;6136;47.032;15.398;2022-12-24T07:14:32;97200.75;;;0.59;100.00
12146;BME280;6136;47.032;15.398;2022-12-24T07:17:02;97199.75;;;0.63;100.00
12146;BME280;6136;47.032;15.398;2022-12-24T07:19:31;97201.06;;;0.78;100.00
12146;BME280;6136;47.032;15.398;2022-12-24T07:22:00;97219.03;;;0.89;100.00
12146;BME280;6136;47.032;15.398;2022-12-24T07:24:28;97222.63;;;1.12;100.00
12146;BME280;6136;47.032;15.398;2022-12-24T07:26:57;97239.66;;;1.26;100.00
12146;BME280;6136;47.032;15.398;2022-12-24T07:29:25;97234.69;;;1.44;100.00
12146;BME280;6136;47.032;15.398;2022-12-24T07:31:53;97236.81;;;1.60;100.00
12146;BME280;6136;47.032;15.398;2022-12-24T07:34:23;97244.00;;;1.53;100.00
12146;BME280;6136;47.032;15.398;2022-12-24T07:36:51;97252.66;;;1.55;100.00
12146;BME280;6136;47.032;15.398;2022-12-24T07:39:20;97255.34;;;1.52;100.00
12146;BME280;6136;47.032;15.398;2022-12-24T07:41:48;97252.16;;;1.70;100.00
12146;BME280;6136;47.032;15.398;2022-12-24T07:44:18;97261.38;;;1.80;100.00
12146;BME280;6136;47.032;15.398;2022-12-24T07:46:46;97274.16;;;1.89;100.00
12146;BME280;6136;47.032;15.398;2022-12-24T07:49:15;97277.38;;;1.98;100.00
12146;BME280;6136;47.032;15.398;2022-12-24T07:51:44;97279.69;;;3.28;100.00
12146;BME280;6136;47.032;15.398;2022-12-24T07:54:13;97272.69;;;4.15;100.00
12146;BME280;6136;47.032;15.398;2022-12-24T07:56:41;97272.41;;;4.63;100.00
12146;BME280;6136;47.032;15.398;2022-12-24T07:59:11;97278.34;;;4.87;100.00
12146;BME280;6136;47.032;15.398;2022-12-24T08:01:39;97268.66;;;5.27;100.00
12146;BME280;6136;47.032;15.398;2022-12-24T08:04:08;97269.13;;;5.72;100.00
12146;BME280;6136;47.032;15.398;2022-12-24T08:06:37;97277.03;;;5.72;100.00
12146;BME280;6136;47.032;15.398;2022-12-24T08:09:07;97277.66;;;5.96;100.00
12146;BME280;6136;47.032;15.398;2022-12-24T08:11:35;97285.06;;;6.07;100.00
12146;BME280;6136;47.032;15.398;2022-12-24T08:14:04;97291.41;;;6.54;100.00
12146;BME280;6136;47.032;15.398;2022-12-24T08:16:32;97296.16;;;5.57;100.00
12146;BME280;6136;47.032;15.398;2022-12-24T08:19:01;97296.59;;;4.70;100.00
12146;BME280;6136;47.032;15.398;2022-12-24T08:21:29;97303.34;;;4.55;100.00
12146;BME280;6136;47.032;15.398;2022-12-24T08:23:57;97304.63;;;4.25;100.00
12146;BME280;6136;47.032;15.398;2022-12-24T08:26:27;97294.44;;;3.97;100.00
12146;BME280;6136;47.032;15.398;2022-12-24T08:28:55;97301.63;;;3.92;100.00
12146;BME280;6136;47.032;15.398;2022-12-24T08:31:24;97316.72;;;3.85;100.00
12146;BME280;6136;47.032;15.398;2022-12-24T08:33:52;97320.19;;;3.86;100.00
12146;BME280;6136;47.032;15.398;2022-12-24T08:36:20;97325.28;;;3.69;100.00
12146;BME280;6136;47.032;15.398;2022-12-24T08:38:49;97333.13;;;3.69;100.00
12146;BME280;6136;47.032;15.398;2022-12-24T08:41:17;97320.69;;;3.74;100.00
12146;BME280;6136;47.032;15.398;2022-12-24T08:43:47;97337.28;;;3.74;100.00
12146;BME280;6136;47.032;15.398;2022-12-24T08:46:15;97331.06;;;3.77;100.00
12146;BME280;6136;47.032;15.398;2022-12-24T08:48:43;97344.94;;;3.79;100.00
12146;BME280;6136;47.032;15.398;2022-12-24T08:51:12;97335.94;;;3.86;100.00
12146;BME280;6136;47.032;15.398;2022-12-24T08:53:40;97329.53;;;3.71;100.00
12146;BME280;6136;47.032;15.398;2022-12-24T08:56:09;97339.59;;;3.82;100.00
12146;BME280;6136;47.032;15.398;2022-12-24T08:58:38;97336.97;;;3.82;100.00
12146;BME280;6136;47.032;15.398;2022-12-24T09:01:13;97342.78;;;3.90;100.00
12146;BME280;6136;47.032;15.398;2022-12-24T09:03:42;97330.78;;;4.06;100.00
12146;BME280;6136;47.032;15.398;2022-12-24T09:06:11;97339.28;;;4.11;100.00
12146;BME280;6136;47.032;15.398;2022-12-24T09:08:40;97331.59;;;4.28;100.00
12146;BME280;6136;47.032;15.398;2022-12-24T09:11:10;97345.25;;;4.37;100.00
12146;BME280;6136;47.032;15.398;2022-12-24T09:13:39;97357.97;;;4.46;100.00
12146;BME280;6136;47.032;15.398;2022-12-24T09:16:07;97361.34;;;4.49;100.00
12146;BME280;6136;47.032;15.398;2022-12-24T09:18:37;97352.50;;;4.52;100.00
12146;BME280;6136;47.032;15.398;2022-12-24T09:21:07;97359.03;;;4.42;100.00
12146;BME280;6136;47.032;15.398;2022-12-24T09:23:37;97366.97;;;4.40;100.00
12146;BME280;6136;47.032;15.398;2022-12-24T09:26:07;97371.34;;;4.40;100.00
12146;BME280;6136;47.032;15.398;2022-12-24T09:28:35;97371.69;;;4.52;100.00
12146;BME280;6136;47.032;15.398;2022-12-24T09:31:04;97369.00;;;4.54;100.00
12146;BME280;6136;47.032;15.398;2022-12-24T09:33:35;97388.44;;;4.50;100.00
12146;BME280;6136;47.032;15.398;2022-12-24T09:36:06;97389.25;;;4.72;100.00
12146;BME280;6136;47.032;15.398;2022-12-24T09:38:35;97393.06;;;4.85;100.00
12146;BME280;6136;47.032;15.398;2022-12-24T09:41:12;97386.91;;;4.86;100.00
12146;BME280;6136;47.032;15.398;2022-12-24T09:43:45;97392.28;;;5.03;100.00
12146;BME280;6136;47.032;15.398;2022-12-24T09:46:20;97388.41;;;5.12;100.00
12146;BME280;6136;47.032;15.398;2022-12-24T09:48:53;97391.88;;;5.33;100.00
12146;BME280;6136;47.032;15.398;2022-12-24T09:51:28;97389.09;;;5.75;100.00
12146;BME280;6136;47.032;15.398;2022-12-24T09:54:01;97399.50;;;5.97;100.00
12146;BME280;6136;47.032;15.398;2022-12-24T09:56:34;97393.72;;;6.26;100.00
12146;BME280;6136;47.032;15.398;2022-12-24T09:59:09;97405.84;;;6.47;100.00
12146;BME280;6136;47.032;15.398;2022-12-24T10:01:38;97408.78;;;6.41;100.00
12146;BME280;6136;47.032;15.398;2022-12-24T10:04:11;97403.25;;;6.10;100.00
12146;BME280;6136;47.032;15.398;2022-12-24T10:06:47;97410.16;;;6.12;100.00
12146;BME280;6136;47.032;15.398;2022-12-24T10:09:23;97413.06;;;6.25;100.00
12146;BME280;6136;47.032;15.398;2022-12-24T10:12:01;97407.16;;;6.20;100.00
12146;BME280;6136;47.032;15.398;2022-12-24T10:14:43;97409.94;;;6.53;100.00
12146;BME280;6136;47.032;15.398;2022-12-24T10:17:35;97405.56;;;6.71;100.00
12146;BME280;6136;47.032;15.398;2022-12-24T10:20:24;97394.56;;;6.97;100.00
12146;BME280;6136;47.032;15.398;2022-12-24T10:23:02;97395.94;;;7.38;100.00
12146;BME280;6136;47.032;15.398;2022-12-24T10:25:37;97410.63;;;7.60;100.00
12146;BME280;6136;47.032;15.398;2022-12-24T10:28:13;97399.53;;;7.70;100.00
12146;BME280;6136;47.032;15.398;2022-12-24T10:30:43;97401.63;;;7.64;100.00
12146;BME280;6136;47.032;15.398;2022-12-24T10:33:19;97410.13;;;7.53;100.00
12146;BME280;6136;47.032;15.398;2022-12-24T10:35:53;97415.47;;;7.85;100.00
12146;BME280;6136;47.032;15.398;2022-12-24T10:38:23;97424.81;;;8.39;100.00
12146;BME280;6136;47.032;15.398;2022-12-24T10:40:54;97405.47;;;8.38;100.00
12146;BME280;6136;47.032;15.398;2022-12-24T10:43:24;97413.19;;;8.88;100.00
12146;BME280;6136;47.032;15.398;2022-12-24T10:45:56;97419.97;;;9.66;100.00
12146;BME280;6136;47.032;15.398;2022-12-24T10:48:28;97410.88;;;10.41;100.00
12146;BME280;6136;47.032;15.398;2022-12-24T10:51:01;97420.44;;;10.71;93.78
12146;BME280;6136;47.032;15.398;2022-12-24T10:53:41;97424.56;;;11.02;92.75
12146;BME280;6136;47.032;15.398;2022-12-24T10:56:13;97430.41;;;11.59;90.31
12146;BME280;6136;47.032;15.398;2022-12-24T10:58:43;97423.72;;;11.66;87.55
12146;BME280;6136;47.032;15.398;2022-12-24T11:01:12;97438.91;;;12.27;84.95
12146;BME280;6136;47.032;15.398;2022-12-24T11:03:41;97437.34;;;12.61;82.39
12146;BME280;6136;47.032;15.398;2022-12-24T11:06:11;97435.72;;;12.35;83.27
12146;BME280;6136;47.032;15.398;2022-12-24T11:08:42;97433.97;;;12.59;81.51
12146;BME280;6136;47.032;15.398;2022-12-24T11:11:12;97422.44;;;13.19;77.75
12146;BME280;6136;47.032;15.398;2022-12-24T11:13:44;97425.41;;;12.91;77.21
12146;BME280;6136;47.032;15.398;2022-12-24T11:16:17;97438.06;;;12.27;79.86
12146;BME280;6136;47.032;15.398;2022-12-24T11:18:50;97444.69;;;11.83;81.46
12146;BME280;6136;47.032;15.398;2022-12-24T11:21:21;97440.69;;;11.51;84.54
12146;BME280;6136;47.032;15.398;2022-12-24T11:23:54;97442.47;;;11.25;87.45
12146;BME280;6136;47.032;15.398;2022-12-24T11:26:25;97448.38;;;11.68;85.92
12146;BME280;6136;47.032;15.398;2022-12-24T11:29:08;97451.47;;;11.87;85.08
12146;BME280;6136;47.032;15.398;2022-12-24T11:31:39;97450.94;;;11.70;84.99
12146;BME280;6136;47.032;15.398;2022-12-24T11:34:22;97459.34;;;11.76;84.04
12146;BME280;6136;47.032;15.398;2022-12-24T11:36:53;97453.09;;;11.38;85.78
12146;BME280;6136;47.032;15.398;2022-12-24T11:39:24;97439.28;;;10.93;88.43
12146;BME280;6136;47.032;15.398;2022-12-24T11:41:53;97439.13;;;10.82;88.73
12146;BME280;6136;47.032;15.398;2022-12-24T11:44:24;97447.16;;;10.54;91.75
12146;BME280;6136;47.032;15.398;2022-12-24T11:46:54;97439.22;;;11.07;89.19
12146;BME280;6136;47.032;15.398;2022-12-24T11:49:26;97434.78;;;11.20;89.65
12146;BME280;6136;47.032;15.398;2022-12-24T11:52:08;97436.75;;;11.04;91.07
12146;BME280;6136;47.032;15.398;2022-12-24T11:54:47;97440.94;;;11.08;91.84
12146;BME280;6136;47.032;15.398;2022-12-24T11:57:19;97435.28;;;11.40;89.97
12146;BME280;6136;47.032;15.398;2022-12-24T11:59:51;97435.78;;;11.84;88.41
12146;BME280;6136;47.032;15.398;2022-12-24T12:02:22;97440.19;;;12.34;85.10
12146;BME280;6136;47.032;15.398;2022-12-24T12:04:56;97438.97;;;12.88;80.71
12146;BME280;6136;47.032;15.398;2022-12-24T12:07:28;97428.16;;;13.02;79.35
12146;BME280;6136;47.032;15.398;2022-12-24T12:10:02;97421.63;;;13.06;79.61
12146;BME280;6136;47.032;15.398;2022-12-24T12:12:33;97418.97;;;13.06;78.11
12146;BME280;6136;47.032;15.398;2022-12-24T12:15:09;97425.25;;;12.57;80.16
12146;BME280;6136;47.032;15.398;2022-12-24T12:17:41;97417.56;;;12.65;80.88
12146;BME280;6136;47.032;15.398;2022-12-24T12:20:15;97419.78;;;12.95;79.33
12146;BME280;6136;47.032;15.398;2022-12-24T12:22:51;97417.91;;;12.84;78.78
12146;BME280;6136;47.032;15.398;2022-12-24T12:25:27;97432.97;;;12.24;80.89
12146;BME280;6136;47.032;15.398;2022-12-24T12:27:59;97435.63;;;12.60;80.61
12146;BME280;6136;47.032;15.398;2022-12-24T12:30:29;97437.44;;;12.96;77.22
12146;BME280;6136;47.032;15.398;2022-12-24T12:33:02;97441.44;;;13.02;75.76
12146;BME280;6136;47.032;15.398;2022-12-24T12:35:33;97435.56;;;12.86;75.05
12146;BME280;6136;47.032;15.398;2022-12-24T12:38:05;97443.41;;;13.24;72.94
12146;BME280;6136;47.032;15.398;2022-12-24T12:40:54;97435.78;;;13.30;72.29
12146;BME280;6136;47.032;15.398;2022-12-24T12:43:37;97436.00;;;13.27;71.94
12146;BME280;6136;47.032;15.398;2022-12-24T12:46:12;97441.16;;;13.41;72.13
12146;BME280;6136;47.032;15.398;2022-12-24T12:49:06;97439.19;;;13.67;71.10
12146;BME280;6136;47.032;15.398;2022-12-24T12:51:43;97427.13;;;13.85;71.32
12146;BME280;6136;47.032;15.398;2022-12-24T12:54:26;97437.84;;;13.73;70.02
12146;BME280;6136;47.032;15.398;2022-12-24T12:57:01;97430.75;;;13.49;70.04
12146;BME280;6136;47.032;15.398;2022-12-24T12:59:34;97441.41;;;13.38;72.04
12146;BME280;6136;47.032;15.398;2022-12-24T13:02:20;97446.22;;;13.33;71.43
12146;BME280;6136;47.032;15.398;2022-12-24T13:05:15;97461.13;;;12.75;74.23
12146;BME280;6136;47.032;15.398;2022-12-24T13:08:09;97472.69;;;12.38;77.43
12146;BME280;6136;47.032;15.398;2022-12-24T13:11:11;97451.50;;;12.00;79.08
12146;BME280;6136;47.032;15.398;2022-12-24T13:13:58;97470.81;;;11.89;79.91
12146;BME280;6136;47.032;15.398;2022-12-24T13:17:04;97461.09;;;12.39;78.73
12146;BME280;6136;47.032;15.398;2022-12-24T13:19:48;97469.22;;;12.61;77.42
12146;BME280;6136;47.032;15.398;2022-12-24T13:22:22;97470.78;;;12.89;76.47
12146;BME280;6136;47.032;15.398;2022-12-24T13:24:52;97451.44;;;12.98;74.90